Time;durP1;ratioP1;P1;durP2;ratioP2;P2;SDS_P1;SDS_P2;PMS_P1;PMS_P2;Temp;Humidity;BMP_temperature;BMP_pressure;BME280_temperature;BME280_humidity;BME280_pressure;Samples;Min_cycle;Max_cycle;Signal;HPM_P1;HPM_P2
2023/09/21 00:02:16;;;;;;;5.70;2.58;;;;;;;;;;5013246;28;20792;-66
2023/09/21 00:04:42;;;;;;;4.18;2.08;;;;;;;;;;5031078;28;20077;-66
2023/09/21 00:07:09;;;;;;;3.22;1.92;;;;;;;;;;5030796;28;20041;-66
2023/09/21 00:09:35;;;;;;;4.28;1.85;;;;;;;;;;5030866;28;20040;-66
2023/09/21 00:12:02;;;;;;;3.85;1.60;;;;;;;;;;5030986;28;20180;-66
2023/09/21 00:14:30;;;;;;;7.03;2.10;;;;;;;;;;5030525;28;20046;-66
2023/09/21 00:16:56;;;;;;;3.63;1.92;;;;;;;;;;5039923;28;20094;-66
2023/09/21 00:19:23;;;;;;;2.67;2.03;;;;;;;;;;5050679;28;20052;-66
2023/09/21 00:21:49;;;;;;;3.95;1.83;;;;;;;;;;5054011;28;20406;-66
2023/09/21 00:24:21;;;;;;;2.67;1.83;;;;;;;;;;5054656;28;20041;-66
2023/09/21 00:26:50;;;;;;;3.53;1.77;;;;;;;;;;5038386;28;20495;-66
2023/09/21 00:29:16;;;;;;;6.20;2.10;;;;;;;;;;5016581;28;20053;-66
2023/09/21 00:31:42;;;;;;;6.10;2.10;;;;;;;;;;5034467;28;20474;-66
2023/09/21 00:34:10;;;;;;;4.80;1.77;;;;;;;;;;5034501;28;20365;-66
2023/09/21 00:36:36;;;;;;;3.65;1.95;;;;;;;;;;5034053;28;20041;-66
2023/09/21 00:39:03;;;;;;;5.65;2.40;;;;;;;;;;5016531;28;20049;-66
2023/09/21 00:41:32;;;;;;;4.95;2.38;;;;;;;;;;5034429;28;20095;-66
2023/09/21 00:43:58;;;;;;;5.78;2.20;;;;;;;;;;5034024;28;20522;-66
2023/09/21 00:46:27;;;;;;;4.18;2.00;;;;;;;;;;5034511;28;20045;-66
2023/09/21 00:48:53;;;;;;;5.40;2.40;;;;;;;;;;5034447;28;20556;-66
2023/09/21 00:51:19;;;;;;;5.38;2.08;;;;;;;;;;5033642;28;20059;-66
2023/09/21 00:53:47;;;;;;;8.43;2.03;;;;;;;;;;5033871;28;20053;-66
2023/09/21 00:56:17;;;;;;;4.65;2.15;;;;;;;;;;5034321;28;20443;-66
2023/09/21 00:58:45;;;;;;;4.97;2.50;;;;;;;;;;5016106;28;20042;-66
2023/09/21 01:01:14;;;;;;;3.88;2.25;;;;;;;;;;5034116;28;20045;-66
2023/09/21 01:03:43;;;;;;;5.97;2.30;;;;;;;;;;5034079;28;20052;-66
2023/09/21 01:06:09;;;;;;;4.88;2.10;;;;;;;;;;5033456;28;20037;-66
2023/09/21 01:08:35;;;;;;;7.28;2.40;;;;;;;;;;5034188;28;20045;-66
2023/09/21 01:11:08;;;;;;;5.28;2.28;;;;;;;;;;5034003;28;20092;-66
2023/09/21 01:13:35;;;;;;;4.78;2.35;;;;;;;;;;5033599;28;20041;-66
2023/09/21 01:16:03;;;;;;;5.40;2.65;;;;;;;;;;5034975;28;20046;-66
2023/09/21 01:18:29;;;;;;;4.88;1.75;;;;;;;;;;5053857;28;20403;-66
2023/09/21 01:20:59;;;;;;;5.65;2.25;;;;;;;;;;5053403;28;20467;-66
2023/09/21 01:23:49;;;;;;;3.38;1.90;;;;;;;;;;5053718;28;20064;-66
2023/09/21 01:26:16;;;;;;;4.55;2.28;;;;;;;;;;5041802;28;20698;-66
2023/09/21 01:28:42;;;;;;;8.23;2.45;;;;;;;;;;5033371;28;20045;-66
2023/09/21 01:31:13;;;;;;;4.70;2.40;;;;;;;;;;5033483;28;20083;-66
2023/09/21 01:33:39;;;;;;;6.03;2.60;;;;;;;;;;5032625;28;20041;-66
2023/09/21 01:36:10;;;;;;;4.43;1.95;;;;;;;;;;5033143;28;20033;-66
2023/09/21 01:38:37;;;;;;;6.47;2.28;;;;;;;;;;5033364;28;20049;-66
2023/09/21 01:41:04;;;;;;;3.35;1.98;;;;;;;;;;5033238;28;20049;-66
2023/09/21 01:43:30;;;;;;;4.13;2.00;;;;;;;;;;5032854;28;20481;-66
2023/09/21 01:45:56;;;;;;;4.55;2.20;;;;;;;;;;5033214;28;20041;-66
2023/09/21 01:48:22;;;;;;;7.88;1.80;;;;;;;;;;5033433;28;20084;-66
2023/09/21 01:50:50;;;;;;;5.05;2.17;;;;;;;;;;5032528;28;20061;-66
2023/09/21 01:53:20;;;;;;;4.57;1.92;;;;;;;;;;5033151;28;20053;-66
2023/09/21 01:55:47;;;;;;;6.22;2.13;;;;;;;;;;5015076;28;20447;-66
2023/09/21 01:58:14;;;;;;;7.15;2.08;;;;;;;;;;5032573;28;20048;-66
2023/09/21 02:00:46;;;;;;;3.83;2.20;;;;;;;;;;5032823;28;20045;-66
2023/09/21 02:03:13;;;;;;;4.68;1.77;;;;;;;;;;5033156;28;20045;-66
2023/09/21 02:05:42;;;;;;;3.65;1.98;;;;;;;;;;5032625;28;20128;-66
2023/09/21 02:08:09;;;;;;;3.33;1.88;;;;;;;;;;5033057;28;20132;-66
2023/09/21 02:10:37;;;;;;;5.32;2.13;;;;;;;;;;5033094;28;20545;-66
2023/09/21 02:13:05;;;;;;;3.72;2.08;;;;;;;;;;5032395;28;20108;-66
2023/09/21 02:15:34;;;;;;;5.68;1.83;;;;;;;;;;5032732;28;20037;-66
2023/09/21 02:18:02;;;;;;;5.65;2.28;;;;;;;;;;5050383;28;20041;-66
2023/09/21 02:20:30;;;;;;;6.05;2.53;;;;;;;;;;5052148;28;20041;-66
2023/09/21 02:22:58;;;;;;;4.32;2.22;;;;;;;;;;5052398;28;20041;-66
2023/09/21 02:25:25;;;;;;;4.25;2.22;;;;;;;;;;5047203;28;20052;-66
2023/09/21 02:27:52;;;;;;;4.55;1.80;;;;;;;;;;5031901;28;20041;-66
2023/09/21 02:30:21;;;;;;;4.15;2.10;;;;;;;;;;5014711;28;20076;-66
2023/09/21 02:32:53;;;;;;;4.13;2.00;;;;;;;;;;5032481;28;20126;-66
2023/09/21 02:35:26;;;;;;;3.22;1.80;;;;;;;;;;5031872;28;20041;-66
2023/09/21 02:37:53;;;;;;;7.10;2.25;;;;;;;;;;5032277;28;20045;-66
2023/09/21 02:40:20;;;;;;;2.40;1.73;;;;;;;;;;5031990;28;20041;-66
2023/09/21 02:42:50;;;;;;;5.00;2.25;;;;;;;;;;5014263;28;20049;-66
2023/09/21 02:45:23;;;;;;;5.07;2.03;;;;;;;;;;5031276;28;20065;-66
2023/09/21 02:47:51;;;;;;;6.22;2.10;;;;;;;;;;5032309;28;20120;-66
2023/09/21 02:50:25;;;;;;;3.75;1.65;;;;;;;;;;5031470;28;20606;-66
2023/09/21 02:53:01;;;;;;;2.65;1.80;;;;;;;;;;5032208;28;20087;-66
2023/09/21 02:55:28;;;;;;;4.70;1.80;;;;;;;;;;5031677;28;20550;-66
2023/09/21 02:57:59;;;;;;;4.50;2.20;;;;;;;;;;5031853;28;20033;-66
2023/09/21 03:00:26;;;;;;;5.18;2.05;;;;;;;;;;5031955;28;20042;-66
2023/09/21 03:02:55;;;;;;;4.57;2.00;;;;;;;;;;5031734;28;20041;-66
2023/09/21 03:05:21;;;;;;;5.70;2.22;;;;;;;;;;5031766;28;20052;-66
2023/09/21 03:07:48;;;;;;;5.93;1.90;;;;;;;;;;5031906;28;20056;-66
2023/09/21 03:10:16;;;;;;;3.25;2.15;;;;;;;;;;5031455;28;20632;-66
2023/09/21 03:12:42;;;;;;;6.13;2.17;;;;;;;;;;5031596;28;20408;-66
2023/09/21 03:15:15;;;;;;;4.15;1.92;;;;;;;;;;5031381;28;20124;-66
2023/09/21 03:17:42;;;;;;;3.53;1.88;;;;;;;;;;5028495;28;20048;-66
2023/09/21 03:20:34;;;;;;;4.70;2.20;;;;;;;;;;5051560;28;20033;-66
2023/09/21 03:23:05;;;;;;;;;;;;;;;;;;5051960;28;20110;-66
2023/09/21 03:25:34;;;;;;;7.45;2.15;;;;;;;;;;5045059;28;19917;-66
2023/09/21 03:28:01;;;;;;;2.47;1.80;;;;;;;;;;5031500;28;20041;-66
2023/09/21 03:30:27;;;;;;;3.30;1.90;;;;;;;;;;5031389;28;20087;-66
2023/09/21 03:32:53;;;;;;;4.22;1.77;;;;;;;;;;5030998;28;20455;-66
2023/09/21 03:35:20;;;;;;;6.03;2.25;;;;;;;;;;5031015;28;20038;-66
2023/09/21 03:37:50;;;;;;;3.65;1.90;;;;;;;;;;5031528;28;20473;-66
2023/09/21 03:40:17;;;;;;;3.58;2.47;;;;;;;;;;5030965;28;20215;-66
2023/09/21 03:42:44;;;;;;;6.50;2.05;;;;;;;;;;5031381;28;20085;-66
2023/09/21 03:45:16;;;;;;;2.90;1.90;;;;;;;;;;5031218;28;20053;-66
2023/09/21 03:47:42;;;;;;;4.07;2.43;;;;;;;;;;5030709;28;20050;-66
2023/09/21 03:50:12;;;;;;;3.30;2.00;;;;;;;;;;5030798;28;20567;-66
2023/09/21 03:52:38;;;;;;;2.75;2.10;;;;;;;;;;5031141;28;20569;-66
2023/09/21 03:55:04;;;;;;;3.60;1.95;;;;;;;;;;5032219;28;20037;-66
2023/09/21 03:57:30;;;;;;;4.32;1.90;;;;;;;;;;5037811;28;20467;-66
2023/09/21 03:59:57;;;;;;;5.65;2.08;;;;;;;;;;5037559;28;20081;-66
2023/09/21 04:02:25;;;;;;;3.00;1.77;;;;;;;;;;5037363;28;20052;-66
2023/09/21 04:04:51;;;;;;;4.40;1.98;;;;;;;;;;5037692;28;20125;-66
2023/09/21 04:07:21;;;;;;;2.85;1.98;;;;;;;;;;5037716;28;20049;-66
2023/09/21 04:09:47;;;;;;;4.00;2.22;;;;;;;;;;5037318;28;20049;-66
2023/09/21 04:12:16;;;;;;;5.40;2.20;;;;;;;;;;5037677;28;20042;-66
2023/09/21 04:14:45;;;;;;;6.93;2.45;;;;;;;;;;5037504;28;20468;-66
2023/09/21 04:17:12;;;;;;;4.30;1.90;;;;;;;;;;5048220;28;21012;-66
2023/09/21 04:19:39;;;;;;;4.15;2.10;;;;;;;;;;5057279;28;20041;-66
2023/09/21 04:22:05;;;;;;;2.95;2.00;;;;;;;;;;5057662;28;20049;-66
2023/09/21 04:24:31;;;;;;;3.13;2.10;;;;;;;;;;5057057;28;20075;-66
2023/09/21 04:26:57;;;;;;;5.38;2.05;;;;;;;;;;5039746;28;20049;-66
2023/09/21 04:29:25;;;;;;;4.05;1.90;;;;;;;;;;5037580;28;20095;-66
2023/09/21 04:31:51;;;;;;;2.65;2.05;;;;;;;;;;5019220;28;20085;-66
2023/09/21 04:34:17;;;;;;;4.97;1.75;;;;;;;;;;5037325;28;20041;-66
2023/09/21 04:36:43;;;;;;;3.38;1.80;;;;;;;;;;5019449;28;20041;-66
2023/09/21 04:39:13;;;;;;;5.25;1.90;;;;;;;;;;5037014;28;20144;-66
2023/09/21 04:41:40;;;;;;;5.65;1.80;;;;;;;;;;5037002;28;20128;-66
2023/09/21 04:44:08;;;;;;;3.75;2.10;;;;;;;;;;5037375;28;20176;-66
2023/09/21 04:46:36;;;;;;;2.65;1.73;;;;;;;;;;5036862;28;20132;-66
2023/09/21 04:49:03;;;;;;;2.92;1.77;;;;;;;;;;5019209;28;20056;-66
2023/09/21 04:51:29;;;;;;;3.53;1.98;;;;;;;;;;5036848;28;20057;-66
2023/09/21 04:53:55;;;;;;;2.88;1.95;;;;;;;;;;5036844;28;20057;-66
2023/09/21 04:56:21;;;;;;;3.45;2.08;;;;;;;;;;5037340;28;20638;-66
2023/09/21 04:58:48;;;;;;;4.70;1.90;;;;;;;;;;5037021;28;20041;-66
2023/09/21 05:01:14;;;;;;;4.88;1.80;;;;;;;;;;5037054;28;20052;-66
2023/09/21 05:03:40;;;;;;;4.72;2.20;;;;;;;;;;5037013;28;20094;-66
2023/09/21 05:06:06;;;;;;;3.05;1.90;;;;;;;;;;5036834;28;20411;-66
2023/09/21 05:08:36;;;;;;;4.50;1.90;;;;;;;;;;5033196;28;20068;-66
2023/09/21 05:11:03;;;;;;;2.67;1.73;;;;;;;;;;5033677;28;20045;-66
2023/09/21 05:13:29;;;;;;;4.03;1.90;;;;;;;;;;5033699;28;20033;-66
2023/09/21 05:15:55;;;;;;;3.58;1.80;;;;;;;;;;5034360;28;20164;-66
2023/09/21 05:18:22;;;;;;;2.55;1.80;;;;;;;;;;5053416;28;20077;-66
2023/09/21 05:20:49;;;;;;;5.30;2.03;;;;;;;;;;5053894;28;20507;-66
2023/09/21 05:23:15;;;;;;;3.72;2.20;;;;;;;;;;5053701;28;20148;-66
2023/09/21 05:25:41;;;;;;;4.03;2.10;;;;;;;;;;5045920;28;20033;-66
2023/09/21 05:28:07;;;;;;;3.88;2.10;;;;;;;;;;5033723;28;20045;-66
2023/09/21 05:30:34;;;;;;;3.47;2.05;;;;;;;;;;5033516;28;20053;-66
2023/09/21 05:33:01;;;;;;;4.85;2.40;;;;;;;;;;5033295;28;20046;-66
2023/09/21 05:35:27;;;;;;;6.13;2.25;;;;;;;;;;5033643;28;20528;-66
2023/09/21 05:37:53;;;;;;;4.47;2.30;;;;;;;;;;5015751;28;20508;-66
2023/09/21 05:40:21;;;;;;;3.85;1.88;;;;;;;;;;5032942;28;20059;-66
2023/09/21 05:42:47;;;;;;;4.70;2.45;;;;;;;;;;5033424;28;20111;-66
2023/09/21 05:45:13;;;;;;;2.78;1.83;;;;;;;;;;5033278;28;20044;-66
2023/09/21 05:47:39;;;;;;;3.25;2.00;;;;;;;;;;5032827;28;20048;-66
2023/09/21 05:50:06;;;;;;;3.50;2.10;;;;;;;;;;5033162;28;20607;-66
2023/09/21 05:52:35;;;;;;;6.38;2.45;;;;;;;;;;5033168;28;20045;-66
2023/09/21 05:55:01;;;;;;;6.80;2.10;;;;;;;;;;5032419;28;20037;-66
2023/09/21 05:57:27;;;;;;;8.02;3.53;;;;;;;;;;5033172;28;20518;-66
2023/09/21 05:59:54;;;;;;;3.72;2.25;;;;;;;;;;5033166;28;20039;-66
2023/09/21 06:02:21;;;;;;;3.28;2.10;;;;;;;;;;5032648;28;20107;-66
2023/09/21 06:04:47;;;;;;;3.03;2.00;;;;;;;;;;5033021;28;20128;-66
2023/09/21 06:07:14;;;;;;;5.50;2.40;;;;;;;;;;5032711;28;20092;-66
2023/09/21 06:09:43;;;;;;;6.47;3.08;;;;;;;;;;5032542;28;20120;-66
2023/09/21 06:12:10;;;;;;;3.97;2.13;;;;;;;;;;5032839;28;20044;-66
2023/09/21 06:14:36;;;;;;;3.38;2.17;;;;;;;;;;5014879;28;20076;-66
2023/09/21 06:17:05;;;;;;;6.00;2.30;;;;;;;;;;5042051;28;20040;-66
2023/09/21 06:19:32;;;;;;;4.35;2.03;;;;;;;;;;5052524;28;20116;-66
2023/09/21 06:21:58;;;;;;;5.47;2.33;;;;;;;;;;5052795;28;20049;-66
2023/09/21 06:24:25;;;;;;;4.35;2.22;;;;;;;;;;5052159;28;20056;-66
2023/09/21 06:26:54;;;;;;;4.63;2.22;;;;;;;;;;5035448;28;20124;-66
2023/09/21 06:29:22;;;;;;;4.82;1.83;;;;;;;;;;5037305;28;20471;-65
2023/09/21 06:31:48;;;;;;;4.93;1.80;;;;;;;;;;5052723;28;20107;-66
2023/09/21 06:34:21;;;;;;;6.45;2.72;;;;;;;;;;5034659;28;20060;-66
2023/09/21 06:36:47;;;;;;;3.90;2.28;;;;;;;;;;5052200;28;20045;-66
2023/09/21 06:39:14;;;;;;;4.38;2.17;;;;;;;;;;5052532;28;20037;-65
2023/09/21 06:41:40;;;;;;;5.43;2.00;;;;;;;;;;5033938;28;20037;-68
2023/09/21 06:44:06;;;;;;;4.85;2.20;;;;;;;;;;5034164;28;20064;-67
2023/09/21 06:46:32;;;;;;;5.65;2.45;;;;;;;;;;5051669;28;20041;-66
2023/09/21 06:49:01;;;;;;;5.90;2.40;;;;;;;;;;5051924;28;20499;-67
2023/09/21 06:51:27;;;;;;;3.55;2.00;;;;;;;;;;5051537;28;20072;-66
2023/09/21 06:53:53;;;;;;;4.82;1.77;;;;;;;;;;5051252;28;20063;-66
2023/09/21 06:56:21;;;;;;;5.25;2.00;;;;;;;;;;5051906;28;20459;-66
2023/09/21 06:58:47;;;;;;;5.43;2.35;;;;;;;;;;5051926;28;20067;-66
2023/09/21 07:01:13;;;;;;;5.05;2.33;;;;;;;;;;5051538;28;20052;-66
2023/09/21 07:03:40;;;;;;;5.03;2.20;;;;;;;;;;5051863;28;20048;-67
2023/09/21 07:06:06;;;;;;;4.00;2.47;;;;;;;;;;5033322;28;20046;-66
2023/09/21 07:08:32;;;;;;;3.92;1.95;;;;;;;;;;5036839;28;20187;-67
2023/09/21 07:10:58;;;;;;;5.00;2.60;;;;;;;;;;5051549;28;20155;-67
2023/09/21 07:13:24;;;;;;;5.50;2.53;;;;;;;;;;5051319;28;20037;-67
2023/09/21 07:15:52;;;;;;;4.22;2.50;;;;;;;;;;5051258;28;20033;-66
2023/09/21 07:18:18;;;;;;;7.60;2.67;;;;;;;;;;5014051;28;20096;-67
2023/09/21 07:20:44;;;;;;;4.88;2.40;;;;;;;;;;4997868;28;20049;-66
2023/09/21 07:23:10;;;;;;;5.03;3.17;;;;;;;;;;5031666;28;20045;-67
2023/09/21 07:25:37;;;;;;;9.32;2.53;;;;;;;;;;5037819;28;20166;-67
2023/09/21 07:28:03;;;;;;;3.65;2.13;;;;;;;;;;5033658;28;20124;-67
2023/09/21 07:30:32;;;;;;;4.40;2.50;;;;;;;;;;5050491;28;20041;-67
2023/09/21 07:32:59;;;;;;;3.72;2.47;;;;;;;;;;5050903;28;20049;-67
2023/09/21 07:35:26;;;;;;;2.88;2.05;;;;;;;;;;5049943;28;20380;-67
2023/09/21 07:37:52;;;;;;;5.60;2.70;;;;;;;;;;5050754;28;20032;-67
2023/09/21 07:40:19;;;;;;;4.57;2.35;;;;;;;;;;5050691;28;20037;-67
2023/09/21 07:42:45;;;;;;;4.60;2.55;;;;;;;;;;5049874;28;20666;-67
2023/09/21 07:45:12;;;;;;;5.25;2.40;;;;;;;;;;5050656;28;20044;-67
2023/09/21 07:47:38;;;;;;;5.07;2.70;;;;;;;;;;5050304;28;20475;-67
2023/09/21 07:50:05;;;;;;;5.22;2.83;;;;;;;;;;5050805;28;20141;-67
2023/09/21 07:52:33;;;;;;;3.72;2.58;;;;;;;;;;5050538;28;20732;-67
2023/09/21 07:55:02;;;;;;;4.32;2.55;;;;;;;;;;5050625;28;20091;-67
2023/09/21 07:57:30;;;;;;;4.90;2.88;;;;;;;;;;5050775;28;20041;-67
2023/09/21 07:59:56;;;;;;;5.88;2.65;;;;;;;;;;5032314;28;20655;-67
2023/09/21 08:02:22;;;;;;;5.43;2.83;;;;;;;;;;5050643;28;20083;-67
2023/09/21 08:04:48;;;;;;;4.75;2.78;;;;;;;;;;5050449;28;20045;-67
2023/09/21 08:07:15;;;;;;;6.28;2.50;;;;;;;;;;5050424;28;20037;-67
2023/09/21 08:09:41;;;;;;;4.68;2.72;;;;;;;;;;5050625;28;20045;-67
2023/09/21 08:12:07;;;;;;;6.10;2.80;;;;;;;;;;5050767;28;20047;-67
2023/09/21 08:14:34;;;;;;;9.30;2.97;;;;;;;;;;5049961;28;20029;-67
2023/09/21 08:17:01;;;;;;;5.00;2.90;;;;;;;;;;5041288;28;20559;-68
2023/09/21 08:19:27;;;;;;;4.00;2.72;;;;;;;;;;5030812;28;20128;-68
2023/09/21 08:21:53;;;;;;;4.90;3.20;;;;;;;;;;5030333;28;20045;-67
2023/09/21 08:24:19;;;;;;;3.92;2.88;;;;;;;;;;5030116;28;20075;-68
2023/09/21 08:26:45;;;;;;;5.25;3.15;;;;;;;;;;5030732;28;20045;-68
2023/09/21 08:29:13;;;;;;;4.38;2.92;;;;;;;;;;5030442;28;20590;-67
2023/09/21 08:31:41;;;;;;;4.90;2.80;;;;;;;;;;5030495;28;20395;-67
2023/09/21 08:34:07;;;;;;;5.13;2.63;;;;;;;;;;5012598;28;20056;-67
2023/09/21 08:36:33;;;;;;;6.70;3.05;;;;;;;;;;5030449;28;20523;-67
2023/09/21 08:39:01;;;;;;;4.55;2.72;;;;;;;;;;5030518;28;20048;-68
2023/09/21 08:41:28;;;;;;;5.82;2.78;;;;;;;;;;5030537;28;20537;-67
2023/09/21 08:43:54;;;;;;;5.25;2.80;;;;;;;;;;5033070;28;20095;-67
2023/09/21 08:46:21;;;;;;;3.92;3.00;;;;;;;;;;5034451;28;20510;-67
2023/09/21 08:48:48;;;;;;;5.95;2.65;;;;;;;;;;5034158;28;20056;-67
2023/09/21 08:51:18;;;;;;;6.00;2.63;;;;;;;;;;5041909;28;20057;-67
2023/09/21 08:53:48;;;;;;;6.43;3.00;;;;;;;;;;5054070;28;20037;-68
2023/09/21 08:56:14;;;;;;;5.97;3.20;;;;;;;;;;5053870;28;20043;-67
2023/09/21 08:58:41;;;;;;;6.20;3.13;;;;;;;;;;5053827;28;20055;-67
2023/09/21 09:01:08;;;;;;;7.60;3.28;;;;;;;;;;5054077;28;20392;-68
2023/09/21 09:03:34;;;;;;;4.88;2.70;;;;;;;;;;5054470;28;20045;-68
2023/09/21 09:06:00;;;;;;;4.32;2.95;;;;;;;;;;5053138;28;20041;-68
2023/09/21 09:08:28;;;;;;;5.05;3.13;;;;;;;;;;5054006;28;20040;-68
2023/09/21 09:10:54;;;;;;;6.03;3.08;;;;;;;;;;5054215;28;20508;-68
2023/09/21 09:13:21;;;;;;;3.90;2.75;;;;;;;;;;5053502;28;20072;-68
2023/09/21 09:15:47;;;;;;;5.90;3.00;;;;;;;;;;5053736;28;20045;-68
2023/09/21 09:18:16;;;;;;;3.95;2.90;;;;;;;;;;5016404;28;20045;-68
2023/09/21 09:20:44;;;;;;;5.65;3.00;;;;;;;;;;5033336;28;20037;-67
2023/09/21 09:23:12;;;;;;;4.38;3.33;;;;;;;;;;5033619;28;20085;-68
2023/09/21 09:25:43;;;;;;;4.47;2.75;;;;;;;;;;5033527;28;20543;-67
2023/09/21 09:28:10;;;;;;;5.85;3.10;;;;;;;;;;5032862;28;20041;-68
2023/09/21 09:30:36;;;;;;;4.32;3.13;;;;;;;;;;5033805;28;20052;-68
2023/09/21 09:33:03;;;;;;;8.75;3.42;;;;;;;;;;5033472;28;20045;-67
2023/09/21 09:35:30;;;;;;;4.43;3.38;;;;;;;;;;5033177;28;20128;-67
2023/09/21 09:37:57;;;;;;;8.13;3.92;;;;;;;;;;5033075;28;20038;-68
2023/09/21 09:40:24;;;;;;;7.00;3.60;;;;;;;;;;5033122;28;20041;-68
2023/09/21 09:42:51;;;;;;;4.32;3.17;;;;;;;;;;5033185;28;20076;-68
2023/09/21 09:45:28;;;;;;;4.93;3.40;;;;;;;;;;5033145;28;20053;-67
2023/09/21 09:48:01;;;;;;;3.67;2.70;;;;;;;;;;5033176;28;20037;-67
2023/09/21 09:50:31;;;;;;;4.63;2.72;;;;;;;;;;5032887;28;20068;-68
2023/09/21 09:53:02;;;;;;;5.72;2.42;;;;;;;;;;5032867;28;20037;-67
2023/09/21 09:55:31;;;;;;;3.00;1.60;;;;;;;;;;5033164;28;20033;-67
2023/09/21 09:57:58;;;;;;;3.53;1.30;;;;;;;;;;5032562;28;20072;-67
2023/09/21 10:00:27;;;;;;;2.50;1.50;;;;;;;;;;5033018;28;20045;-67
2023/09/21 10:02:55;;;;;;;1.92;1.17;;;;;;;;;;5033022;28;20052;-67
2023/09/21 10:05:21;;;;;;;1.67;1.00;;;;;;;;;;5032507;28;20497;-66
2023/09/21 10:07:49;;;;;;;2.38;0.85;;;;;;;;;;5032600;28;20462;-68
2023/09/21 10:10:19;;;;;;;2.58;1.02;;;;;;;;;;5032918;28;20038;-67
2023/09/21 10:12:46;;;;;;;1.15;0.90;;;;;;;;;;5032623;28;20043;-67
2023/09/21 10:15:16;;;;;;;1.35;0.70;;;;;;;;;;5032853;28;20049;-67
2023/09/21 10:17:43;;;;;;;0.90;0.50;;;;;;;;;;5033043;28;20050;-67
2023/09/21 10:20:15;;;;;;;4.60;0.80;;;;;;;;;;5032894;28;20472;-67
2023/09/21 10:22:43;;;;;;;1.20;0.60;;;;;;;;;;5014806;28;20051;-65
2023/09/21 10:25:11;;;;;;;2.17;0.70;;;;;;;;;;5035757;28;20049;-65
2023/09/21 10:27:46;;;;;;;2.65;0.80;;;;;;;;;;5051943;28;20064;-65
2023/09/21 10:30:12;;;;;;;2.05;0.80;;;;;;;;;;5052542;28;20188;-65
2023/09/21 10:32:42;;;;;;;0.70;0.63;;;;;;;;;;5052593;28;20045;-65
2023/09/21 10:35:14;;;;;;;1.25;0.70;;;;;;;;;;5052117;28;20369;-65
2023/09/21 10:37:40;;;;;;;1.27;0.80;;;;;;;;;;5052630;28;20099;-65
2023/09/21 10:40:09;;;;;;;1.00;0.70;;;;;;;;;;5052191;28;20048;-65
2023/09/21 10:42:39;;;;;;;1.13;0.70;;;;;;;;;;5051954;28;20121;-65
2023/09/21 10:45:07;;;;;;;1.35;0.60;;;;;;;;;;5052193;28;20049;-65
2023/09/21 10:47:36;;;;;;;0.73;0.60;;;;;;;;;;5052350;28;20077;-65
2023/09/21 10:50:03;;;;;;;1.67;0.50;;;;;;;;;;5051761;28;20049;-65
2023/09/21 10:52:30;;;;;;;0.73;0.55;;;;;;;;;;5052173;28;20099;-65
2023/09/21 10:54:57;;;;;;;0.70;0.55;;;;;;;;;;5052127;28;20119;-65
2023/09/21 10:57:27;;;;;;;1.38;0.52;;;;;;;;;;5051848;28;20072;-65
2023/09/21 10:59:54;;;;;;;1.40;0.73;;;;;;;;;;5052323;28;20041;-65
2023/09/21 11:02:21;;;;;;;0.77;0.50;;;;;;;;;;5052126;28;20541;-65
2023/09/21 11:04:48;;;;;;;1.35;0.50;;;;;;;;;;5050716;28;20071;-65
2023/09/21 11:07:17;;;;;;;0.90;0.47;;;;;;;;;;5052135;28;20036;-65
2023/09/21 11:09:47;;;;;;;0.60;0.50;;;;;;;;;;5018175;28;20045;-65
2023/09/21 11:12:17;;;;;;;0.90;0.50;;;;;;;;;;5051474;28;20041;-65
2023/09/21 11:14:47;;;;;;;0.70;0.63;;;;;;;;;;5051800;28;20060;-65
2023/09/21 11:17:16;;;;;;;0.90;0.50;;;;;;;;;;5040173;28;20048;-65
2023/09/21 11:19:42;;;;;;;0.40;0.35;;;;;;;;;;5031513;28;20052;-65
2023/09/21 11:22:12;;;;;;;2.28;0.60;;;;;;;;;;5031662;28;20106;-65
2023/09/21 11:24:38;;;;;;;1.85;0.73;;;;;;;;;;5013904;28;20041;-65
2023/09/21 11:27:09;;;;;;;1.27;0.60;;;;;;;;;;5049712;28;20049;-65
2023/09/21 11:29:35;;;;;;;1.05;0.50;;;;;;;;;;5051430;28;20091;-65
2023/09/21 11:32:01;;;;;;;1.15;0.60;;;;;;;;;;5051496;28;20114;-65
2023/09/21 11:34:29;;;;;;;1.05;0.70;;;;;;;;;;5050947;28;20633;-65
2023/09/21 11:36:55;;;;;;;1.60;0.60;;;;;;;;;;5051167;28;20352;-65
2023/09/21 11:39:27;;;;;;;1.42;0.50;;;;;;;;;;5051660;28;20036;-65
2023/09/21 11:41:53;;;;;;;;;;;;;;;;;;5051349;28;20084;-65
2023/09/21 11:44:20;;;;;;;3.28;0.93;;;;;;;;;;5051372;28;20418;-65
2023/09/21 11:46:48;;;;;;;0.88;0.68;;;;;;;;;;5051472;28;20048;-65
2023/09/21 11:49:16;;;;;;;1.65;0.80;;;;;;;;;;5050887;28;20044;-65
2023/09/21 11:51:45;;;;;;;2.10;0.70;;;;;;;;;;5050742;28;20052;-65
2023/09/21 11:54:11;;;;;;;1.10;0.70;;;;;;;;;;5050709;28;20066;-65
2023/09/21 11:56:38;;;;;;;0.82;0.60;;;;;;;;;;5050769;28;20507;-65
2023/09/21 11:59:06;;;;;;;1.60;0.80;;;;;;;;;;5051065;28;20041;-65
2023/09/21 12:01:35;;;;;;;0.95;0.68;;;;;;;;;;5051156;28;20045;-65
2023/09/21 12:04:03;;;;;;;2.22;0.75;;;;;;;;;;5050740;28;20045;-65
2023/09/21 12:06:30;;;;;;;0.80;0.70;;;;;;;;;;5051192;28;20037;-65
2023/09/21 12:08:57;;;;;;;2.17;0.75;;;;;;;;;;5051237;28;20041;-65
2023/09/21 12:11:24;;;;;;;1.85;0.70;;;;;;;;;;5050649;28;20045;-65
2023/09/21 12:13:50;;;;;;;0.77;0.70;;;;;;;;;;5050836;28;20041;-65
2023/09/21 12:16:16;;;;;;;2.65;0.77;;;;;;;;;;5048584;28;20526;-65
2023/09/21 12:18:43;;;;;;;0.95;0.60;;;;;;;;;;5034598;28;20087;-65
2023/09/21 12:21:09;;;;;;;0.70;0.60;;;;;;;;;;5034967;28;20052;-65
2023/09/21 12:23:35;;;;;;;1.40;0.80;;;;;;;;;;5035080;28;20034;-65
2023/09/21 12:26:01;;;;;;;0.80;0.50;;;;;;;;;;5044564;28;20040;-64
2023/09/21 12:28:28;;;;;;;3.45;0.80;;;;;;;;;;5054761;28;20041;-64
2023/09/21 12:30:54;;;;;;;4.78;0.80;;;;;;;;;;5054738;28;20041;-64
2023/09/21 12:33:21;;;;;;;1.55;0.70;;;;;;;;;;5054168;28;20484;-64
2023/09/21 12:35:47;;;;;;;1.45;0.70;;;;;;;;;;5054652;28;20037;-64
2023/09/21 12:38:14;;;;;;;1.95;0.70;;;;;;;;;;5054737;28;20437;-64
2023/09/21 12:40:41;;;;;;;1.00;0.70;;;;;;;;;;5053753;28;20071;-64
2023/09/21 12:43:08;;;;;;;1.25;0.70;;;;;;;;;;5054453;28;20086;-64
2023/09/21 12:45:34;;;;;;;1.65;0.70;;;;;;;;;;5054419;28;20049;-64
2023/09/21 12:48:01;;;;;;;3.08;1.30;;;;;;;;;;5054036;28;20045;-64
2023/09/21 12:50:28;;;;;;;1.10;0.60;;;;;;;;;;5054288;28;20134;-64
2023/09/21 12:52:57;;;;;;;1.08;0.60;;;;;;;;;;5053948;28;20164;-64
2023/09/21 12:55:23;;;;;;;1.20;0.85;;;;;;;;;;5053858;28;20033;-64
2023/09/21 12:57:50;;;;;;;1.55;0.70;;;;;;;;;;5054289;28;20044;-64
2023/09/21 13:00:22;;;;;;;2.00;0.70;;;;;;;;;;5054295;28;20048;-64
2023/09/21 13:02:48;;;;;;;;;;;;;;;;;;5054013;28;20063;-64
2023/09/21 13:05:14;;;;;;;1.42;0.82;;;;;;;;;;5054053;28;19916;-64
2023/09/21 13:07:41;;;;;;;2.22;1.00;;;;;;;;;;5054042;28;20045;-64
2023/09/21 13:10:07;;;;;;;1.88;0.70;;;;;;;;;;5053342;28;20068;-64
2023/09/21 13:12:33;;;;;;;1.35;0.70;;;;;;;;;;5053780;28;20041;-64
2023/09/21 13:15:00;;;;;;;2.85;1.17;;;;;;;;;;5053750;28;20033;-64
2023/09/21 13:17:27;;;;;;;0.90;0.63;;;;;;;;;;5040361;28;20038;-64
2023/09/21 13:19:54;;;;;;;1.20;0.80;;;;;;;;;;5033895;28;20052;-63
2023/09/21 13:22:21;;;;;;;1.23;0.80;;;;;;;;;;5033761;28;20152;-63
2023/09/21 13:24:47;;;;;;;2.50;0.80;;;;;;;;;;5033313;28;20128;-63
2023/09/21 13:27:13;;;;;;;2.42;0.98;;;;;;;;;;5053220;28;20447;-63
2023/09/21 13:29:40;;;;;;;2.00;0.90;;;;;;;;;;5053176;28;20037;-63
2023/09/21 13:32:07;;;;;;;1.45;0.75;;;;;;;;;;5053342;28;20445;-63
2023/09/21 13:34:33;;;;;;;2.33;1.00;;;;;;;;;;5053630;28;20040;-63
2023/09/21 13:36:59;;;;;;;1.58;0.70;;;;;;;;;;5053516;28;20094;-63
2023/09/21 13:39:26;;;;;;;1.20;0.70;;;;;;;;;;5053120;28;20051;-63
2023/09/21 13:41:53;;;;;;;3.13;0.65;;;;;;;;;;5053557;28;20091;-63
2023/09/21 13:44:20;;;;;;;1.80;0.80;;;;;;;;;;5053232;28;20047;-63
2023/09/21 13:46:46;;;;;;;1.40;0.82;;;;;;;;;;5053142;28;20060;-63
2023/09/21 13:49:12;;;;;;;2.08;0.90;;;;;;;;;;5053597;28;20357;-63
2023/09/21 13:51:38;;;;;;;1.45;0.80;;;;;;;;;;5053025;28;20053;-63
2023/09/21 13:54:05;;;;;;;1.15;0.80;;;;;;;;;;5053092;28;20188;-63
2023/09/21 13:56:31;;;;;;;1.73;0.80;;;;;;;;;;5053204;28;20033;-63
2023/09/21 13:58:57;;;;;;;3.38;0.95;;;;;;;;;;5052951;28;20052;-63
2023/09/21 14:01:26;;;;;;;1.58;0.93;;;;;;;;;;5053059;28;20067;-63
2023/09/21 14:03:53;;;;;;;1.83;0.85;;;;;;;;;;5052797;28;20047;-63
2023/09/21 14:06:21;;;;;;;1.15;0.82;;;;;;;;;;5053119;28;20090;-63
2023/09/21 14:08:47;;;;;;;2.42;0.68;;;;;;;;;;5052905;28;20091;-63
2023/09/21 14:11:14;;;;;;;6.32;1.20;;;;;;;;;;5052194;28;20121;-63
2023/09/21 14:13:40;;;;;;;7.75;1.70;;;;;;;;;;5052736;28;20067;-63
2023/09/21 14:16:08;;;;;;;2.38;1.05;;;;;;;;;;5050596;28;20124;-63
2023/09/21 14:18:34;;;;;;;6.50;1.52;;;;;;;;;;5032250;28;20091;-63
2023/09/21 14:21:01;;;;;;;3.00;1.20;;;;;;;;;;5032935;28;20046;-63
2023/09/21 14:23:27;;;;;;;8.68;2.08;;;;;;;;;;5033415;28;20049;-63
2023/09/21 14:25:53;;;;;;;7.30;1.52;;;;;;;;;;5041601;28;20082;-63
2023/09/21 14:28:19;;;;;;;3.35;1.40;;;;;;;;;;5053190;28;20041;-63
2023/09/21 14:30:45;;;;;;;5.03;1.77;;;;;;;;;;5053276;28;20049;-63
2023/09/21 14:33:11;;;;;;;3.83;1.30;;;;;;;;;;5052698;28;20048;-63
2023/09/21 14:35:37;;;;;;;2.25;1.02;;;;;;;;;;5035370;28;20072;-63
2023/09/21 14:38:04;;;;;;;2.55;1.17;;;;;;;;;;5052872;28;20048;-63
2023/09/21 14:40:31;;;;;;;4.20;0.90;;;;;;;;;;5052808;28;20064;-63
2023/09/21 14:42:57;;;;;;;1.17;0.77;;;;;;;;;;5035143;28;20049;-63
2023/09/21 14:45:24;;;;;;;2.25;0.90;;;;;;;;;;5052984;28;20491;-63